Time;durP1;ratioP1;P1;durP2;ratioP2;P2;SDS_P1;SDS_P2;PMS_P1;PMS_P2;Temp;Humidity;BMP_temperature;BMP_pressure;BME280_temperature;BME280_humidity;BME280_pressure;Samples;Min_cycle;Max_cycle;Signal;HPM_P1;HPM_P2
2023/11/04 00:01:15;;;;;;;12.77;5.20;;;4.50;99.90;;;;;;5046355;28;20608;-68
2023/11/04 00:03:53;;;;;;;11.43;4.73;;;4.50;99.90;;;;;;5044267;28;20536;-68
2023/11/04 00:06:22;;;;;;;10.57;4.10;;;4.40;99.90;;;;;;5052058;28;20839;-70
2023/11/04 00:08:50;;;;;;;13.30;6.60;;;4.40;99.90;;;;;;5048652;28;21071;-69
2023/11/04 00:11:18;;;;;;;12.53;5.00;;;4.30;99.90;;;;;;5049015;28;20452;-68
2023/11/04 00:13:46;;;;;;;11.20;5.00;;;4.30;99.90;;;;;;5037419;28;20912;-69
2023/11/04 00:16:14;;;;;;;12.33;4.67;;;4.30;99.90;;;;;;5044451;28;20487;-69
2023/11/04 00:18:42;;;;;;;10.00;4.27;;;4.30;99.90;;;;;;5045432;28;20517;-68
2023/11/04 00:21:12;;;;;;;10.67;4.57;;;4.30;99.90;;;;;;5047316;28;22177;-70
2023/11/04 00:23:40;;;;;;;10.80;4.60;;;4.30;99.90;;;;;;5045087;28;20500;-69
2023/11/04 00:26:08;;;;;;;11.47;3.97;;;4.30;99.90;;;;;;5044955;28;20552;-69
2023/11/04 00:28:36;;;;;;;12.83;4.27;;;4.30;99.90;;;;;;5046027;28;20475;-68
2023/11/04 00:31:06;;;;;;;10.30;4.10;;;4.30;99.90;;;;;;5043895;28;20540;-70
2023/11/04 00:33:34;;;;;;;8.80;3.50;;;4.30;99.90;;;;;;5047798;28;20449;-69
2023/11/04 00:36:03;;;;;;;10.13;3.80;;;4.30;99.90;;;;;;5046485;28;20464;-69
2023/11/04 00:38:32;;;;;;;9.77;3.40;;;4.30;99.90;;;;;;5041875;28;20454;-69
2023/11/04 00:41:00;;;;;;;11.23;4.33;;;4.20;99.90;;;;;;5044705;28;20537;-69
2023/11/04 00:43:28;;;;;;;10.37;3.93;;;4.20;99.90;;;;;;5040569;28;20449;-69
2023/11/04 00:45:56;;;;;;;8.20;3.37;;;4.10;99.90;;;;;;5037950;28;20840;-71
2023/11/04 00:48:24;;;;;;;10.30;3.70;;;4.00;99.90;;;;;;5043946;28;20555;-70
2023/11/04 00:50:52;;;;;;;9.87;3.57;;;3.90;99.90;;;;;;5040920;28;20453;-69
2023/11/04 00:53:20;;;;;;;12.60;3.50;;;3.90;99.90;;;;;;5047400;28;21021;-69
2023/11/04 00:55:49;;;;;;;8.87;3.30;;;4.00;99.90;;;;;;5043043;28;20468;-69
2023/11/04 00:58:17;;;;;;;8.40;3.40;;;4.00;99.90;;;;;;5048020;28;20507;-69
2023/11/04 01:00:45;;;;;;;11.40;4.10;;;4.00;99.90;;;;;;5047727;28;20450;-68
2023/11/04 01:03:13;;;;;;;8.93;2.90;;;4.00;99.90;;;;;;5047971;28;20494;-69
2023/11/04 01:05:41;;;;;;;10.00;3.07;;;3.90;99.90;;;;;;5047278;28;20472;-70
2023/11/04 01:08:09;;;;;;;10.33;3.00;;;3.80;99.90;;;;;;5047696;28;20440;-70
2023/11/04 01:10:38;;;;;;;9.80;3.87;;;3.70;99.90;;;;;;5045052;28;20451;-70
2023/11/04 01:13:07;;;;;;;12.80;4.00;;;3.60;99.90;;;;;;5047667;28;20436;-69
2023/11/04 01:15:35;;;;;;;11.80;3.60;;;3.70;99.90;;;;;;5040491;28;20452;-68
2023/11/04 01:18:04;;;;;;;9.27;4.00;;;3.70;99.90;;;;;;5045937;28;20462;-69
2023/11/04 01:20:33;;;;;;;10.67;3.63;;;3.60;99.90;;;;;;5047902;28;20456;-70
2023/11/04 01:23:01;;;;;;;7.80;3.33;;;3.60;99.90;;;;;;5046335;28;20484;-72
2023/11/04 01:25:29;;;;;;;13.20;3.73;;;3.80;99.90;;;;;;5040374;28;20483;-68
2023/11/04 01:27:57;;;;;;;11.30;3.90;;;3.90;99.90;;;;;;5042842;28;20918;-68
2023/11/04 01:30:26;;;;;;;9.97;3.80;;;4.00;99.90;;;;;;5047172;28;20440;-68
2023/11/04 01:32:54;;;;;;;12.50;3.83;;;4.10;99.90;;;;;;5047570;28;20439;-69
2023/11/04 01:35:22;;;;;;;8.60;3.60;;;4.30;99.90;;;;;;5044115;28;20983;-68
2023/11/04 01:37:50;;;;;;;10.00;4.00;;;4.30;99.90;;;;;;5047418;28;20478;-68
2023/11/04 01:40:18;;;;;;;7.83;2.70;;;4.50;99.90;;;;;;5041506;28;20450;-68
2023/11/04 01:42:46;;;;;;;8.33;2.83;;;4.50;99.90;;;;;;5046700;28;20482;-68
2023/11/04 01:45:14;;;;;;;8.10;3.50;;;4.70;99.90;;;;;;5048212;28;20469;-68
2023/11/04 01:47:44;;;;;;;10.65;3.90;;;4.80;99.90;;;;;;5048124;28;20517;-67
2023/11/04 01:50:13;;;;;;;9.57;3.90;;;4.80;99.90;;;;;;5048418;28;20211;-68
2023/11/04 01:52:43;;;;;;;10.63;4.13;;;4.90;99.90;;;;;;5047836;28;20481;-69
2023/11/04 01:55:12;;;;;;;8.70;3.03;;;5.00;99.90;;;;;;5047337;28;20567;-69
2023/11/04 01:57:41;;;;;;;9.33;3.37;;;5.00;99.90;;;;;;5048756;28;20466;-69
2023/11/04 02:00:10;;;;;;;8.73;2.60;;;5.00;99.90;;;;;;5048782;28;20532;-69
2023/11/04 02:02:39;;;;;;;8.83;2.63;;;5.10;99.90;;;;;;5048623;28;20485;-69
2023/11/04 02:05:09;;;;;;;9.07;3.30;;;5.10;99.90;;;;;;5048281;28;20472;-69
2023/11/04 02:07:37;;;;;;;7.50;2.23;;;5.20;99.90;;;;;;5048334;28;20447;-67
2023/11/04 02:10:06;;;;;;;11.53;3.20;;;5.20;99.90;;;;;;5047979;28;20454;-70
2023/11/04 02:12:34;;;;;;;7.97;2.60;;;5.10;99.90;;;;;;5045173;28;20934;-69
2023/11/04 02:15:02;;;;;;;8.10;2.80;;;4.90;99.90;;;;;;5047695;28;20524;-69
2023/11/04 02:17:30;;;;;;;9.53;2.37;;;4.70;99.90;;;;;;5048742;28;20452;-70
2023/11/04 02:20:01;;;;;;;6.87;2.00;;;4.70;99.90;;;;;;5048477;28;20464;-69
2023/11/04 02:22:31;;;;;;;7.83;1.93;;;4.60;99.90;;;;;;5049474;28;20486;-69
2023/11/04 02:24:59;;;;;;;7.13;1.90;;;4.70;99.90;;;;;;5046818;28;21017;-69
2023/11/04 02:27:27;;;;;;;7.67;1.90;;;4.60;99.90;;;;;;5038891;28;20524;-68
2023/11/04 02:29:55;;;;;;;7.90;2.20;;;4.50;99.90;;;;;;5048205;28;20452;-69
2023/11/04 02:32:23;;;;;;;8.03;2.20;;;4.50;99.90;;;;;;5048590;28;20448;-68
2023/11/04 02:34:50;;;;;;;8.17;2.60;;;4.50;99.90;;;;;;5044953;28;20560;-68
2023/11/04 02:37:18;;;;;;;9.03;2.57;;;4.50;99.90;;;;;;5040537;28;20501;-69
2023/11/04 02:39:48;;;;;;;8.30;2.63;;;4.40;99.90;;;;;;5047571;28;20989;-69
2023/11/04 02:42:16;;;;;;;10.37;4.70;;;4.40;99.90;;;;;;5044015;28;20483;-69
2023/11/04 02:44:43;;;;;;;8.37;2.63;;;4.40;99.90;;;;;;5047497;28;21157;-66
2023/11/04 02:47:11;;;;;;;9.03;2.23;;;4.30;99.90;;;;;;5048172;28;20521;-68
2023/11/04 02:49:39;;;;;;;13.73;2.80;;;4.10;99.90;;;;;;5048003;28;20489;-68
2023/11/04 02:52:07;;;;;;;9.20;3.07;;;4.20;99.90;;;;;;5047269;28;20489;-69
2023/11/04 02:54:39;;;;;;;8.77;2.53;;;4.10;99.90;;;;;;5046992;28;20444;-69
2023/11/04 02:57:08;;;;;;;8.20;2.87;;;4.00;99.90;;;;;;5048396;28;20452;-68
2023/11/04 02:59:36;;;;;;;10.40;3.03;;;3.80;99.90;;;;;;5047635;28;20475;-69
2023/11/04 03:02:05;;;;;;;7.53;3.00;;;3.90;99.90;;;;;;5047632;28;20436;-68
2023/11/04 03:04:34;;;;;;;8.80;3.07;;;3.90;99.90;;;;;;5050675;28;20817;-71
2023/11/04 03:07:02;;;;;;;17.00;4.90;;;4.00;99.90;;;;;;5050352;28;20447;-69
2023/11/04 03:09:30;;;;;;;10.37;3.50;;;4.10;99.90;;;;;;5051037;28;20454;-68
2023/11/04 03:11:58;;;;;;;9.30;5.20;;;4.10;99.90;;;;;;5052158;28;20880;-68
2023/11/04 03:14:28;;;;;;;10.93;3.43;;;4.00;99.90;;;;;;5051697;28;20439;-69
2023/11/04 03:16:56;;;;;;;10.67;3.27;;;3.90;99.90;;;;;;5052043;28;20471;-70
2023/11/04 03:19:25;;;;;;;9.60;3.43;;;3.90;99.90;;;;;;5051917;28;20505;-68
2023/11/04 03:21:53;;;;;;;11.07;3.50;;;3.80;99.90;;;;;;5051135;28;20987;-68
2023/11/04 03:24:22;;;;;;;7.93;3.00;;;3.80;99.90;;;;;;5050792;28;20486;-71
2023/11/04 03:26:51;;;;;;;10.17;3.70;;;3.70;99.90;;;;;;5052020;28;20467;-70
2023/11/04 03:29:19;;;;;;;10.67;3.47;;;3.60;99.90;;;;;;5051491;28;20443;-68
2023/11/04 03:31:48;;;;;;;9.37;3.60;;;3.60;99.90;;;;;;5051292;28;20448;-70
2023/11/04 03:34:16;;;;;;;9.37;3.83;;;3.60;99.90;;;;;;5045114;28;20525;-68
2023/11/04 03:36:45;;;;;;;10.73;3.70;;;3.80;99.90;;;;;;5051319;28;20909;-68
2023/11/04 03:39:13;;;;;;;10.30;3.73;;;3.80;99.90;;;;;;5047160;28;21035;-69
2023/11/04 03:41:41;;;;;;;12.43;4.47;;;3.80;99.90;;;;;;5050955;28;20472;-68
2023/11/04 03:44:09;;;;;;;11.53;3.63;;;3.80;99.90;;;;;;5050203;28;20618;-66
2023/11/04 03:46:37;;;;;;;11.57;3.93;;;3.80;99.90;;;;;;5050818;28;20528;-69
2023/11/04 03:49:07;;;;;;;10.07;3.77;;;3.70;99.90;;;;;;5050340;28;20622;-68
2023/11/04 03:51:35;;;;;;;14.53;4.33;;;3.80;99.90;;;;;;5050397;28;20471;-68
2023/11/04 03:54:03;;;;;;;12.27;4.77;;;3.80;99.90;;;;;;5046224;28;20554;-68
2023/11/04 03:56:31;;;;;;;9.27;3.67;;;3.90;99.90;;;;;;5050856;28;20868;-68
2023/11/04 03:58:59;;;;;;;12.53;3.90;;;3.90;99.90;;;;;;5050187;28;20500;-69
2023/11/04 04:01:27;;;;;;;10.23;3.37;;;3.90;99.90;;;;;;5050687;28;20467;-71
2023/11/04 04:03:55;;;;;;;9.97;3.80;;;3.90;99.90;;;;;;5050468;28;20498;-67
2023/11/04 04:06:25;;;;;;;10.30;3.60;;;4.00;99.90;;;;;;5050735;28;20566;-68
2023/11/04 04:08:53;;;;;;;10.23;4.10;;;3.90;99.90;;;;;;5050251;28;20467;-69
2023/11/04 04:11:22;;;;;;;10.90;3.93;;;3.90;99.90;;;;;;5043068;28;20478;-68
2023/11/04 04:13:51;;;;;;;10.73;3.90;;;3.90;99.90;;;;;;5049523;28;20982;-70
2023/11/04 04:16:18;;;;;;;10.70;4.63;;;3.90;99.90;;;;;;5049803;28;20529;-70
2023/11/04 04:18:46;;;;;;;14.67;5.30;;;3.90;99.90;;;;;;5049722;28;20504;-69
2023/11/04 04:21:15;;;;;;;12.63;4.93;;;3.90;99.90;;;;;;5050140;28;20456;-68
2023/11/04 04:23:46;;;;;;;11.10;5.13;;;3.80;99.90;;;;;;5049379;28;20483;-68
2023/11/04 04:26:19;;;;;;;12.23;5.80;;;3.80;99.90;;;;;;5047997;28;20468;-70
2023/11/04 04:28:47;;;;;;;11.97;5.73;;;3.80;99.90;;;;;;5050222;28;20787;-69
2023/11/04 04:31:15;;;;;;;11.67;5.97;;;3.70;99.90;;;;;;5049575;28;20460;-68
2023/11/04 04:33:45;;;;;;;12.23;6.10;;;3.70;99.90;;;;;;5048997;28;20514;-69
2023/11/04 04:36:13;;;;;;;13.13;6.67;;;3.70;99.90;;;;;;5048769;28;20463;-70
2023/11/04 04:38:41;;;;;;;11.87;6.43;;;3.70;99.90;;;;;;5037636;28;20467;-68
2023/11/04 04:41:10;;;;;;;14.33;7.37;;;3.70;99.90;;;;;;5042771;28;20448;-68
2023/11/04 04:43:38;;;;;;;15.27;7.77;;;3.70;99.90;;;;;;5049462;28;20482;-69
2023/11/04 04:46:06;;;;;;;13.33;7.37;;;3.70;99.90;;;;;;5049387;28;20962;-68
2023/11/04 04:48:34;;;;;;;17.93;9.30;;;3.70;99.90;;;;;;5045655;28;20892;-68
2023/11/04 04:51:03;;;;;;;16.10;9.27;;;3.60;99.90;;;;;;5049027;28;21009;-69
2023/11/04 04:53:31;;;;;;;17.10;9.00;;;3.60;99.90;;;;;;5049275;28;20494;-71
2023/11/04 04:55:59;;;;;;;16.30;9.17;;;3.60;99.90;;;;;;5049529;28;20464;-69
2023/11/04 04:58:29;;;;;;;17.57;8.30;;;3.50;99.90;;;;;;5049789;28;20483;-69
2023/11/04 05:00:57;;;;;;;13.97;7.83;;;3.50;99.90;;;;;;5044953;28;20546;-69
2023/11/04 05:03:25;;;;;;;12.23;6.60;;;3.50;99.90;;;;;;5049775;28;20845;-68
2023/11/04 05:05:53;;;;;;;12.37;6.70;;;3.50;99.90;;;;;;5043139;28;20495;-68
2023/11/04 05:08:21;;;;;;;14.00;7.07;;;3.60;99.90;;;;;;5043015;28;20471;-68
2023/11/04 05:10:49;;;;;;;12.57;5.67;;;3.50;99.90;;;;;;5049229;28;20495;-68
2023/11/04 05:13:18;;;;;;;9.97;5.23;;;3.50;99.90;;;;;;5048004;28;20470;-69
2023/11/04 05:15:47;;;;;;;12.50;5.07;;;3.50;99.90;;;;;;5045159;28;20487;-68
2023/11/04 05:18:15;;;;;;;11.23;4.87;;;3.60;99.90;;;;;;5046900;28;20525;-68
2023/11/04 05:20:43;;;;;;;11.70;5.13;;;3.60;99.90;;;;;;5041282;28;20551;-69
2023/11/04 05:23:12;;;;;;;10.57;4.80;;;3.60;99.90;;;;;;5048418;28;20464;-69
2023/11/04 05:25:40;;;;;;;11.07;4.37;;;3.60;99.90;;;;;;5039770;28;20495;-69
2023/11/04 05:28:08;;;;;;;10.80;4.40;;;3.60;99.90;;;;;;5048742;28;20927;-68
2023/11/04 05:30:36;;;;;;;10.33;4.40;;;3.60;99.90;;;;;;5049050;28;20458;-69
2023/11/04 05:33:05;;;;;;;8.07;3.23;;;3.60;99.90;;;;;;5048597;28;20515;-70
2023/11/04 05:35:33;;;;;;;10.10;4.17;;;3.60;99.90;;;;;;5048341;28;20460;-68
2023/11/04 05:38:05;;;;;;;11.27;4.43;;;3.60;99.90;;;;;;5044911;28;20446;-68
2023/11/04 05:40:33;;;;;;;9.60;4.17;;;3.60;99.90;;;;;;5037421;28;20566;-70
2023/11/04 05:43:01;;;;;;;8.57;3.63;;;3.60;99.90;;;;;;5040285;28;20533;-68
2023/11/04 05:45:29;;;;;;;9.47;4.30;;;3.70;99.90;;;;;;5047653;28;20900;-68
2023/11/04 05:47:57;;;;;;;9.60;3.83;;;3.70;99.90;;;;;;5048979;28;20468;-69
2023/11/04 05:50:27;;;;;;;11.10;4.37;;;3.60;99.90;;;;;;5047914;28;20472;-68
2023/11/04 05:52:55;;;;;;;10.73;5.07;;;3.60;99.90;;;;;;5048606;28;20943;-67
2023/11/04 05:55:23;;;;;;;9.47;3.90;;;3.70;99.90;;;;;;5041653;28;20971;-67
2023/11/04 05:57:51;;;;;;;12.10;4.77;;;3.60;99.90;;;;;;5047034;28;20999;-67
2023/11/04 06:00:19;;;;;;;10.10;4.67;;;3.60;99.90;;;;;;5048877;28;20468;-66
2023/11/04 06:02:47;;;;;;;10.57;4.60;;;3.50;99.90;;;;;;5048781;28;21249;-67
2023/11/04 06:05:15;;;;;;;9.37;3.90;;;3.50;99.90;;;;;;5047232;28;20487;-69
2023/11/04 06:07:44;;;;;;;11.90;5.13;;;3.40;99.90;;;;;;5045568;28;20472;-68
2023/11/04 06:10:12;;;;;;;11.37;4.23;;;3.50;99.90;;;;;;5048483;28;20549;-69
2023/11/04 06:12:41;;;;;;;9.33;4.27;;;3.50;99.90;;;;;;5046911;28;20558;-68
2023/11/04 06:15:10;;;;;;;10.33;3.73;;;3.50;99.90;;;;;;5047793;28;20451;-68
2023/11/04 06:17:39;;;;;;;10.47;4.10;;;3.50;99.90;;;;;;5047648;28;20529;-68
2023/11/04 06:20:08;;;;;;;9.30;4.27;;;3.60;99.90;;;;;;5048023;28;20558;-68
2023/11/04 06:22:37;;;;;;;10.00;4.40;;;3.60;99.90;;;;;;5047246;28;20939;-68
2023/11/04 06:25:08;;;;;;;8.60;3.50;;;3.60;99.90;;;;;;5047199;28;20891;-67
2023/11/04 06:27:36;;;;;;;10.27;4.10;;;3.50;99.90;;;;;;5048094;28;20521;-68
2023/11/04 06:30:06;;;;;;;8.80;3.83;;;3.50;99.90;;;;;;5047666;28;20503;-68
2023/11/04 06:32:34;;;;;;;9.83;3.70;;;3.40;99.90;;;;;;5042243;28;20460;-67
2023/11/04 06:35:03;;;;;;;9.40;3.87;;;3.40;99.90;;;;;;5047016;28;21038;-69
2023/11/04 06:37:31;;;;;;;10.47;3.63;;;3.50;99.90;;;;;;5048809;28;20454;-68
2023/11/04 06:39:58;;;;;;;8.90;3.73;;;3.60;99.90;;;;;;5051964;28;21006;-67
2023/11/04 06:42:28;;;;;;;8.40;3.43;;;3.70;99.90;;;;;;5046431;28;20464;-67
2023/11/04 06:44:56;;;;;;;9.13;3.23;;;3.70;99.90;;;;;;5050640;28;20492;-67
2023/11/04 06:47:24;;;;;;;9.57;3.20;;;3.80;99.90;;;;;;5051953;28;20476;-69
2023/11/04 06:49:52;;;;;;;9.73;3.50;;;3.80;99.90;;;;;;5051858;28;20501;-67
2023/11/04 06:52:21;;;;;;;9.60;3.33;;;3.80;99.90;;;;;;5051907;28;20580;-67
2023/11/04 06:54:49;;;;;;;8.57;3.03;;;3.90;99.90;;;;;;5051324;28;20561;-67
2023/11/04 06:57:16;;;;;;;9.00;3.00;;;3.90;99.90;;;;;;5051517;28;20553;-67
2023/11/04 06:59:46;;;;;;;8.33;3.33;;;4.10;99.90;;;;;;5051819;28;20488;-68
2023/11/04 07:02:14;;;;;;;9.07;3.37;;;4.10;99.90;;;;;;5045942;28;20471;-68
2023/11/04 07:04:42;;;;;;;10.23;3.60;;;4.20;99.90;;;;;;5050365;28;20549;-67
2023/11/04 07:07:10;;;;;;;8.67;3.40;;;4.20;99.90;;;;;;5051665;28;20469;-67
2023/11/04 07:09:38;;;;;;;9.20;3.23;;;4.30;99.90;;;;;;5051532;28;20572;-68
2023/11/04 07:12:06;;;;;;;8.63;3.40;;;4.50;99.90;;;;;;5051463;28;20598;-68
2023/11/04 07:14:34;;;;;;;8.30;3.20;;;4.50;99.90;;;;;;5050732;28;20461;-68
2023/11/04 07:17:05;;;;;;;8.10;2.73;;;4.60;99.90;;;;;;5047632;28;20506;-68
2023/11/04 07:19:33;;;;;;;8.70;3.00;;;4.70;99.90;;;;;;5050822;28;21189;-67
2023/11/04 07:22:01;;;;;;;8.97;3.00;;;4.80;99.90;;;;;;5044805;28;20453;-68
2023/11/04 07:24:29;;;;;;;9.90;3.03;;;4.80;99.90;;;;;;5049290;28;20432;-67
2023/11/04 07:26:57;;;;;;;8.07;2.60;;;4.90;99.90;;;;;;5050108;28;20475;-68
2023/11/04 07:29:25;;;;;;;8.30;3.10;;;4.90;99.90;;;;;;5051535;28;20445;-67
2023/11/04 07:31:53;;;;;;;7.80;2.37;;;5.10;99.90;;;;;;5046750;28;20648;-68
2023/11/04 07:34:22;;;;;;;7.73;2.40;;;5.30;99.90;;;;;;5050798;28;20518;-68
2023/11/04 07:36:51;;;;;;;8.57;2.87;;;5.50;99.90;;;;;;5051192;28;20587;-68
2023/11/04 07:39:19;;;;;;;8.77;3.47;;;5.60;99.90;;;;;;5049752;28;20464;-68
2023/11/04 07:41:48;;;;;;;9.30;2.90;;;5.80;99.90;;;;;;5043006;28;20448;-67
2023/11/04 07:44:16;;;;;;;7.33;2.17;;;5.90;99.90;;;;;;5047647;28;20949;-68
2023/11/04 07:46:44;;;;;;;8.83;2.90;;;6.10;99.90;;;;;;5047769;28;20567;-68
2023/11/04 07:49:12;;;;;;;6.93;2.00;;;6.20;99.90;;;;;;5050659;28;20573;-68
2023/11/04 07:51:41;;;;;;;7.67;2.43;;;6.30;99.90;;;;;;5051069;28;20523;-70
2023/11/04 07:54:10;;;;;;;8.57;3.07;;;6.40;99.90;;;;;;5050229;28;20805;-67
2023/11/04 07:56:37;;;;;;;9.40;2.60;;;6.50;99.90;;;;;;5048655;28;20470;-68
2023/11/04 07:59:06;;;;;;;9.00;2.40;;;6.60;99.90;;;;;;5044079;28;20502;-69
2023/11/04 08:01:34;;;;;;;8.30;2.00;;;6.80;99.90;;;;;;5045994;28;20528;-68
2023/11/04 08:04:02;;;;;;;6.60;1.67;;;6.80;99.90;;;;;;5050206;28;20468;-68
2023/11/04 08:06:31;;;;;;;6.37;1.30;;;6.90;99.90;;;;;;5050735;28;20490;-68
2023/11/04 08:09:00;;;;;;;7.47;2.00;;;7.00;99.90;;;;;;5050859;28;20572;-68
2023/11/04 08:11:28;;;;;;;7.87;2.20;;;7.00;99.90;;;;;;5050542;28;20452;-66
2023/11/04 08:13:56;;;;;;;7.67;2.20;;;7.10;99.90;;;;;;5049332;28;20452;-67
2023/11/04 08:16:24;;;;;;;6.43;1.53;;;7.20;99.90;;;;;;5049950;28;20538;-66
2023/11/04 08:18:52;;;;;;;7.23;1.70;;;7.40;99.90;;;;;;5050335;28;20453;-67
2023/11/04 08:21:20;;;;;;;6.90;1.90;;;7.40;99.90;;;;;;5050016;28;20456;-67
2023/11/04 08:23:48;;;;;;;7.40;2.00;;;7.50;99.90;;;;;;5047769;28;20474;-69
2023/11/04 08:26:17;;;;;;;7.20;1.70;;;7.70;99.90;;;;;;5049783;28;20488;-68
2023/11/04 08:28:45;;;;;;;7.80;2.00;;;7.70;99.90;;;;;;5050326;28;21142;-68
2023/11/04 08:31:14;;;;;;;8.67;2.33;;;7.80;99.90;;;;;;5050067;28;20447;-68
2023/11/04 08:33:42;;;;;;;7.23;1.53;;;7.80;99.90;;;;;;5045722;28;20510;-69
2023/11/04 08:36:10;;;;;;;7.83;1.83;;;7.80;99.90;;;;;;5048259;28;20460;-71
2023/11/04 08:38:38;;;;;;;7.90;1.30;;;7.90;99.90;;;;;;5049817;28;20454;-67
2023/11/04 08:41:06;;;;;;;6.27;1.20;;;8.00;99.90;;;;;;5048868;28;20444;-65
2023/11/04 08:43:37;;;;;;;8.50;1.47;;;8.20;99.90;;;;;;5044521;28;20462;-66
2023/11/04 08:46:05;;;;;;;6.20;1.10;;;8.40;99.90;;;;;;5049041;28;20563;-67
2023/11/04 08:48:33;;;;;;;6.20;1.10;;;8.50;99.90;;;;;;5049361;28;20453;-66
2023/11/04 08:51:01;;;;;;;6.67;1.17;;;8.70;99.90;;;;;;5049280;28;20450;-67
2023/11/04 08:53:29;;;;;;;6.00;0.80;;;9.00;99.90;;;;;;5048945;28;20546;-66
2023/11/04 08:55:58;;;;;;;6.10;0.80;;;9.20;99.90;;;;;;5048543;28;20482;-68
2023/11/04 08:58:26;;;;;;;9.27;1.20;;;9.30;99.90;;;;;;5049368;28;20491;-67
2023/11/04 09:00:55;;;;;;;7.70;1.07;;;9.50;99.90;;;;;;5048268;28;20540;-67
2023/11/04 09:03:23;;;;;;;6.70;1.20;;;9.50;99.90;;;;;;5044551;28;20509;-66
2023/11/04 09:05:52;;;;;;;6.47;1.10;;;9.50;99.90;;;;;;5048800;28;20491;-66
2023/11/04 09:08:20;;;;;;;6.93;1.20;;;9.60;99.90;;;;;;5050877;28;20458;-65
2023/11/04 09:10:48;;;;;;;6.43;0.93;;;9.60;99.90;;;;;;5042449;28;20493;-68
2023/11/04 09:13:16;;;;;;;6.73;1.20;;;9.70;99.90;;;;;;5045586;28;20505;-69
2023/11/04 09:15:45;;;;;;;6.77;1.37;;;9.70;99.90;;;;;;5043691;28;20465;-69
2023/11/04 09:18:14;;;;;;;6.70;1.40;;;9.80;99.90;;;;;;5039940;28;20883;-68
2023/11/04 09:20:45;;;;;;;6.80;1.43;;;9.90;99.90;;;;;;5048242;28;20450;-68
2023/11/04 09:23:13;;;;;;;7.13;1.13;;;10.00;99.90;;;;;;5045106;28;20458;-69
2023/11/04 09:25:41;;;;;;;7.00;1.07;;;10.10;99.90;;;;;;5047592;28;20573;-67
2023/11/04 09:28:09;;;;;;;5.80;0.90;;;10.10;99.90;;;;;;5045583;28;20447;-66
2023/11/04 09:30:38;;;;;;;6.70;1.20;;;10.00;99.90;;;;;;5048016;28;20444;-68
2023/11/04 09:33:06;;;;;;;7.37;2.53;;;10.10;99.90;;;;;;5048073;28;20447;-67
2023/11/04 09:35:35;;;;;;;5.87;1.03;;;10.30;99.90;;;;;;5039607;28;21083;-67
2023/11/04 09:38:04;;;;;;;6.67;1.10;;;10.60;99.90;;;;;;5045315;28;20460;-68
2023/11/04 09:40:32;;;;;;;11.80;1.30;;;11.10;99.90;;;;;;5043996;28;20459;-67
2023/11/04 09:43:00;;;;;;;8.30;1.20;;;11.50;99.90;;;;;;5041739;28;20460;-69
2023/11/04 09:45:29;;;;;;;6.80;1.00;;;11.90;99.90;;;;;;5041858;28;20480;-67
2023/11/04 09:47:57;;;;;;;5.83;0.90;;;12.10;99.90;;;;;;5044755;28;20519;-68
2023/11/04 09:50:27;;;;;;;6.97;1.00;;;12.30;99.90;;;;;;5046777;28;20481;-66
2023/11/04 09:53:00;;;;;;;6.80;1.23;;;12.80;99.90;;;;;;5046737;28;20456;-66
2023/11/04 09:55:29;;;;;;;7.43;1.00;;;13.20;99.90;;;;;;5042243;28;20490;-70
2023/11/04 09:57:59;;;;;;;6.20;0.90;;;13.20;99.90;;;;;;5045489;28;20525;-66
2023/11/04 10:00:29;;;;;;;5.60;0.80;;;13.30;99.90;;;;;;5039710;28;21119;-66
2023/11/04 10:02:57;;;;;;;9.07;1.50;;;13.50;99.90;;;;;;5037090;28;20459;-69
2023/11/04 10:05:27;;;;;;;6.00;0.77;;;13.50;99.90;;;;;;5044837;28;20861;-67
2023/11/04 10:07:56;;;;;;;6.53;0.70;;;13.60;99.90;;;;;;5045624;28;20484;-68
2023/11/04 10:10:24;;;;;;;5.80;0.60;;;13.60;99.90;;;;;;5048785;28;20999;-66
2023/11/04 10:12:56;;;;;;;6.00;0.70;;;13.40;99.90;;;;;;5038368;28;20459;-66
2023/11/04 10:15:25;;;;;;;6.70;0.70;;;13.10;99.90;;;;;;5040190;28;20499;-68
2023/11/04 10:17:53;;;;;;;5.80;0.83;;;13.20;99.90;;;;;;5048392;28;20822;-68
2023/11/04 10:20:22;;;;;;;6.60;0.70;;;13.20;99.90;;;;;;5048434;28;20534;-67
2023/11/04 10:22:50;;;;;;;5.70;0.67;;;12.80;99.90;;;;;;5048816;28;20447;-66
2023/11/04 10:25:20;;;;;;;5.80;0.70;;;12.60;99.90;;;;;;5044441;28;20470;-65
2023/11/04 10:27:48;;;;;;;6.60;1.13;;;12.70;99.90;;;;;;5047908;28;20511;-67
2023/11/04 10:30:16;;;;;;;5.57;0.60;;;12.90;99.90;;;;;;5047967;28;20450;-67
2023/11/04 10:32:49;;;;;;;6.20;0.70;;;13.00;99.90;;;;;;5048352;28;20546;-66
2023/11/04 10:35:18;;;;;;;5.73;0.60;;;12.90;99.90;;;;;;5047689;28;20521;-67
2023/11/04 10:37:48;;;;;;;6.00;0.90;;;12.60;99.90;;;;;;5048282;28;20478;-69
2023/11/04 10:40:16;;;;;;;6.00;0.73;;;12.20;99.90;;;;;;5044059;28;20474;-68
2023/11/04 10:42:50;;;;;;;5.63;0.63;;;11.90;99.90;;;;;;5048012;28;20873;-66
2023/11/04 10:45:25;;;;;;;6.67;0.70;;;11.80;99.90;;;;;;5047559;28;20509;-68
2023/11/04 10:47:58;;;;;;;6.17;0.60;;;11.60;99.90;;;;;;5048113;28;20487;-67
2023/11/04 10:50:32;;;;;;;10.57;1.00;;;11.50;99.90;;;;;;5047020;28;20804;-67
2023/11/04 10:53:11;;;;;;;6.47;0.90;;;11.60;99.90;;;;;;5045877;28;20458;-69
2023/11/04 10:55:45;;;;;;;5.80;0.80;;;11.50;99.90;;;;;;5046862;28;20478;-70
2023/11/04 10:58:20;;;;;;;6.30;1.10;;;11.40;99.90;;;;;;5051303;28;20490;-68
2023/11/04 11:00:50;;;;;;;5.90;0.80;;;11.50;99.90;;;;;;5047713;28;20449;-68
2023/11/04 11:03:19;;;;;;;6.60;0.90;;;11.50;99.90;;;;;;5047191;28;20963;-70
2023/11/04 11:05:48;;;;;;;5.70;0.60;;;11.50;99.90;;;;;;5044132;28;20502;-71
2023/11/04 11:08:17;;;;;;;5.93;1.03;;;11.50;99.90;;;;;;5039045;28;20972;-71
2023/11/04 11:10:53;;;;;;;5.90;0.87;;;11.50;99.90;;;;;;5046877;28;20479;-69
2023/11/04 11:13:24;;;;;;;6.63;0.80;;;11.60;99.90;;;;;;5046239;28;20450;-70
2023/11/04 11:15:52;;;;;;;5.80;0.70;;;11.60;99.90;;;;;;5044025;28;21002;-70
2023/11/04 11:18:27;;;;;;;5.90;0.70;;;11.80;99.90;;;;;;5040564;28;20975;-71
2023/11/04 11:20:55;;;;;;;5.57;0.60;;;12.10;99.90;;;;;;5047360;28;20480;-69
2023/11/04 11:23:28;;;;;;;6.90;0.87;;;12.40;99.90;;;;;;5048002;28;20529;-70
2023/11/04 11:26:06;;;;;;;5.57;0.70;;;12.60;99.90;;;;;;5051221;28;20541;-70
2023/11/04 11:28:37;;;;;;;5.70;0.63;;;12.70;99.90;;;;;;5049591;28;20479;-69
2023/11/04 11:31:11;;;;;;;5.50;0.60;;;12.70;99.90;;;;;;5050869;28;20443;-69
2023/11/04 11:33:41;;;;;;;6.93;0.87;;;12.40;99.90;;;;;;5050165;28;21020;-69
2023/11/04 11:36:13;;;;;;;6.50;0.77;;;12.10;99.90;;;;;;5043953;28;20474;-71
2023/11/04 11:38:43;;;;;;;6.13;0.90;;;12.10;99.90;;;;;;5051488;28;21014;-70
2023/11/04 11:41:14;;;;;;;5.87;0.80;;;12.10;99.90;;;;;;5049836;28;20472;-70
2023/11/04 11:43:46;;;;;;;6.33;0.70;;;12.30;99.90;;;;;;5050767;28;20462;-69
2023/11/04 11:46:14;;;;;;;6.07;0.90;;;12.30;99.90;;;;;;5051083;28;20466;-69
2023/11/04 11:48:44;;;;;;;5.60;0.80;;;12.30;99.90;;;;;;5051295;28;21033;-69
2023/11/04 11:51:15;;;;;;;5.60;0.60;;;12.30;99.90;;;;;;5051102;28;20473;-70
2023/11/04 11:53:45;;;;;;;6.20;0.97;;;12.30;99.90;;;;;;5049877;28;20492;-69
2023/11/04 11:56:14;;;;;;;7.37;1.13;;;12.20;99.90;;;;;;5049576;28;20566;-72
2023/11/04 11:58:45;;;;;;;5.80;0.83;;;12.20;99.90;;;;;;5050438;28;20920;-70
2023/11/04 12:01:13;;;;;;;6.10;0.80;;;12.10;99.90;;;;;;5043311;28;20454;-70
2023/11/04 12:03:42;;;;;;;6.67;0.70;;;12.10;99.90;;;;;;5049142;28;20451;-70
2023/11/04 12:06:11;;;;;;;6.00;0.80;;;11.90;99.90;;;;;;5048927;28;20490;-70
2023/11/04 12:08:39;;;;;;;7.47;0.67;;;11.70;99.90;;;;;;5048009;28;20574;-66
2023/11/04 12:11:08;;;;;;;5.40;0.50;;;11.60;99.90;;;;;;5049320;28;20442;-69
2023/11/04 12:13:36;;;;;;;8.40;0.90;;;11.40;99.90;;;;;;5048469;28;20534;-70
2023/11/04 12:16:08;;;;;;;7.43;0.70;;;11.20;99.90;;;;;;5049623;28;20487;-70
2023/11/04 12:18:36;;;;;;;5.70;0.80;;;11.10;99.90;;;;;;5049570;28;20565;-70
2023/11/04 12:21:06;;;;;;;14.33;1.47;;;11.00;99.90;;;;;;5043437;28;20454;-67
2023/11/04 12:23:35;;;;;;;6.00;0.87;;;10.90;99.90;;;;;;5050382;28;20447;-67
2023/11/04 12:26:03;;;;;;;5.83;0.77;;;10.90;99.90;;;;;;5049899;28;20477;-67
2023/11/04 12:28:31;;;;;;;5.70;0.80;;;10.90;99.90;;;;;;5050827;28;20701;-68
2023/11/04 12:31:00;;;;;;;7.70;0.90;;;10.80;99.90;;;;;;5046570;28;20449;-65
2023/11/04 12:33:29;;;;;;;6.73;0.80;;;10.80;99.90;;;;;;5047152;28;20548;-67
2023/11/04 12:35:59;;;;;;;6.10;0.80;;;10.80;99.90;;;;;;5048369;28;20509;-66
2023/11/04 12:38:34;;;;;;;5.90;0.70;;;10.70;99.90;;;;;;5049996;28;20515;-69
2023/11/04 12:41:03;;;;;;;7.60;0.70;;;10.60;99.90;;;;;;5044661;28;20460;-68
2023/11/04 12:43:33;;;;;;;7.30;1.37;;;10.60;99.90;;;;;;5039045;28;20539;-67
2023/11/04 12:46:03;;;;;;;7.20;0.80;;;10.60;99.90;;;;;;5044645;28;20994;-68
2023/11/04 12:48:33;;;;;;;5.77;0.80;;;10.60;99.90;;;;;;5049542;28;20496;-69
2023/11/04 12:51:01;;;;;;;6.07;0.70;;;10.50;99.90;;;;;;5048238;28;21149;-68
2023/11/04 12:53:30;;;;;;;6.07;0.70;;;10.60;99.90;;;;;;5046588;28;20453;-66
2023/11/04 12:55:58;;;;;;;5.50;0.60;;;10.80;99.90;;;;;;5045619;28;20547;-67
2023/11/04 12:58:26;;;;;;;6.00;0.80;;;10.90;99.90;;;;;;5048074;28;20496;-68